createdAt,value
2022-10-11T00:01:36.522Z,7.05
2022-10-11T00:04:03.386Z,6.10
2022-10-11T00:06:30.010Z,4.32
2022-10-11T00:08:58.835Z,4.60
2022-10-11T00:11:25.505Z,4.72
2022-10-11T00:13:54.356Z,4.10
2022-10-11T00:16:23.623Z,4.10
2022-10-11T00:18:50.199Z,1.20
2022-10-11T00:21:17.205Z,3.53
2022-10-11T00:23:43.819Z,1.10
2022-10-11T00:26:11.957Z,2.38
2022-10-11T00:28:39.030Z,0.98
2022-10-11T00:31:10.910Z,0.82
2022-10-11T00:33:38.734Z,1.73
2022-10-11T00:36:06.753Z,4.13
2022-10-11T00:41:00.521Z,0.88
2022-10-11T00:43:29.591Z,0.77
2022-10-11T00:45:55.987Z,0.80
2022-10-11T00:48:34.006Z,0.50
2022-10-11T00:51:04.871Z,1.30
2022-10-11T00:53:33.015Z,1.63
2022-10-11T00:56:14.573Z,1.40
2022-10-11T00:58:42.547Z,4.13
2022-10-11T01:01:09.482Z,1.45
2022-10-11T01:03:38.167Z,1.38
2022-10-11T01:06:05.293Z,0.68
2022-10-11T01:08:32.769Z,0.52
2022-10-11T01:10:59.345Z,0.63
2022-10-11T01:13:31.574Z,2.08
2022-10-11T01:16:15.353Z,2.97
2022-10-11T01:18:59.445Z,1.45
2022-10-11T01:21:52.070Z,1.83
2022-10-11T01:24:43.807Z,1.45
2022-10-11T01:27:34.904Z,5.90
2022-10-11T01:30:19.486Z,6.80
2022-10-11T01:33:06.395Z,5.13
2022-10-11T01:35:51.787Z,1.83
2022-10-11T01:38:38.547Z,4.85
2022-10-11T01:41:21.157Z,6.85
2022-10-11T01:43:49.927Z,7.55
2022-10-11T01:46:16.938Z,4.60
2022-10-11T01:48:52.671Z,8.15
2022-10-11T01:51:27.945Z,1.15
2022-10-11T01:54:19.187Z,4.95
2022-10-11T01:57:04.026Z,5.18
2022-10-11T02:00:09.914Z,2.95
2022-10-11T02:02:58.339Z,3.28
2022-10-11T02:05:36.870Z,4.82
2022-10-11T02:08:06.222Z,3.38
2022-10-11T02:10:40.305Z,3.53
2022-10-11T02:13:15.264Z,2.28
2022-10-11T02:15:44.278Z,5.43
2022-10-11T02:18:18.316Z,1.40
2022-10-11T02:20:45.906Z,1.48
2022-10-11T02:23:17.794Z,2.35
2022-10-11T02:25:45.703Z,3.10
2022-10-11T02:28:16.883Z,2.90
2022-10-11T02:30:48.234Z,2.35
2022-10-11T02:33:22.575Z,3.22
2022-10-11T02:35:55.102Z,1.83
2022-10-11T02:38:26.227Z,3.55
2022-10-11T02:41:18.977Z,4.45
2022-10-11T02:43:57.337Z,3.58
2022-10-11T02:46:25.182Z,3.22
2022-10-11T02:48:54.423Z,0.95
2022-10-11T02:51:20.984Z,2.00
2022-10-11T02:53:47.578Z,0.70
2022-10-11T02:56:14.083Z,4.93
2022-10-11T02:58:40.576Z,3.28
2022-10-11T03:01:07.681Z,1.35
2022-10-11T03:03:35.157Z,1.23
2022-10-11T03:06:04.704Z,7.25
2022-10-11T03:08:31.662Z,3.13
2022-10-11T03:11:00.714Z,3.42
2022-10-11T03:13:29.642Z,2.47
2022-10-11T03:16:07.288Z,1.63
2022-10-11T03:18:34.071Z,2.08
2022-10-11T03:21:00.716Z,1.40
2022-10-11T03:23:27.692Z,1.10
2022-10-11T03:25:54.216Z,1.58
2022-10-11T03:28:21.635Z,1.70
2022-10-11T03:30:49.373Z,1.10
2022-10-11T03:33:17.497Z,0.90
2022-10-11T03:35:46.121Z,1.80
2022-10-11T03:38:14.741Z,1.45
2022-10-11T03:40:42.619Z,6.60
2022-10-11T03:43:09.304Z,1.38
2022-10-11T03:45:39.059Z,2.28
2022-10-11T03:48:05.990Z,3.13
2022-10-11T03:50:33.005Z,1.80
2022-10-11T03:52:59.483Z,6.57
2022-10-11T03:55:26.090Z,1.80
2022-10-11T03:57:52.935Z,3.20
2022-10-11T04:00:19.641Z,3.70
2022-10-11T04:02:46.083Z,4.47
2022-10-11T04:05:12.797Z,3.00
2022-10-11T04:07:42.538Z,0.93
2022-10-11T04:10:10.235Z,2.63
2022-10-11T04:12:38.329Z,1.83
2022-10-11T04:15:08.136Z,1.55
2022-10-11T04:17:34.842Z,5.03
2022-10-11T04:20:01.745Z,2.33
2022-10-11T04:22:28.289Z,2.35
2022-10-11T04:24:54.749Z,2.25
2022-10-11T04:27:21.466Z,1.92
2022-10-11T04:29:48.114Z,0.80
2022-10-11T04:32:14.755Z,12.27
2022-10-11T04:34:46.654Z,15.57
2022-10-11T04:37:13.788Z,13.32
2022-10-11T04:39:40.281Z,19.38
2022-10-11T04:42:07.200Z,13.93
2022-10-11T04:44:33.691Z,10.55
2022-10-11T04:47:02.668Z,3.47
2022-10-11T04:49:29.919Z,1.95
2022-10-11T04:51:57.025Z,2.75
2022-10-11T04:54:23.902Z,4.72
2022-10-11T04:56:52.749Z,3.75
2022-10-11T04:59:19.288Z,2.00
2022-10-11T05:01:45.950Z,0.85
2022-10-11T05:04:14.819Z,1.75
2022-10-11T05:06:41.503Z,3.58
2022-10-11T05:09:08.147Z,3.33
2022-10-11T05:11:34.928Z,3.63
2022-10-11T05:14:01.596Z,2.55
2022-10-11T05:16:28.343Z,4.40
2022-10-11T05:18:55.261Z,2.55
2022-10-11T05:21:24.852Z,2.45
2022-10-11T05:23:56.225Z,5.32
2022-10-11T05:26:24.467Z,3.05
2022-10-11T05:28:52.800Z,2.88
2022-10-11T05:33:46.526Z,4.00
2022-10-11T05:36:15.696Z,4.78
2022-10-11T05:38:42.286Z,4.82
2022-10-11T05:41:12.036Z,2.80
2022-10-11T05:43:38.976Z,4.78
2022-10-11T05:46:08.351Z,4.43
2022-10-11T05:48:35.088Z,3.15
2022-10-11T05:51:03.599Z,5.38
2022-10-11T05:53:30.629Z,4.88
2022-10-11T05:55:58.007Z,6.90
2022-10-11T05:58:24.491Z,4.15
2022-10-11T06:00:51.098Z,11.32
2022-10-11T06:03:17.708Z,5.72
2022-10-11T06:05:44.296Z,6.05
2022-10-11T06:08:11.408Z,5.57
2022-10-11T06:10:38.708Z,8.43
2022-10-11T06:13:06.124Z,7.43
2022-10-11T06:15:33.499Z,6.90
2022-10-11T06:18:00.137Z,4.88
2022-10-11T06:20:27.076Z,4.00
2022-10-11T06:22:56.769Z,10.93
2022-10-11T06:25:23.670Z,5.25
2022-10-11T06:27:52.624Z,9.35
2022-10-11T06:30:19.301Z,9.95
2022-10-11T06:32:45.886Z,14.40
2022-10-11T06:35:12.435Z,9.32
2022-10-11T06:37:38.994Z,11.65
2022-10-11T06:40:06.576Z,7.47
2022-10-11T06:42:33.029Z,5.00
2022-10-11T06:45:00.278Z,7.45
2022-10-11T06:47:27.126Z,6.22
2022-10-11T06:49:54.033Z,4.75
2022-10-11T06:52:20.950Z,5.35
2022-10-11T06:54:47.478Z,4.50
2022-10-11T06:57:16.523Z,4.80
2022-10-11T06:59:43.541Z,2.80
2022-10-11T07:02:10.708Z,5.00
2022-10-11T07:04:37.727Z,5.05
2022-10-11T07:07:04.713Z,6.55
2022-10-11T07:09:31.757Z,9.82
2022-10-11T07:11:58.660Z,10.70
2022-10-11T07:14:28.088Z,6.35
2022-10-11T07:16:54.626Z,7.47
2022-10-11T07:19:21.438Z,4.22
2022-10-11T07:21:48.492Z,6.55
2022-10-11T07:24:15.322Z,4.28
2022-10-11T07:26:59.670Z,4.65
2022-10-11T07:29:26.255Z,6.80
2022-10-11T07:31:52.757Z,9.80
2022-10-11T07:34:20.679Z,8.70
2022-10-11T07:36:47.263Z,7.30
2022-10-11T07:39:16.388Z,5.90
2022-10-11T07:41:46.162Z,7.65
2022-10-11T07:44:13.120Z,6.38
2022-10-11T07:46:39.595Z,11.20
2022-10-11T07:49:06.187Z,7.18
2022-10-11T07:51:33.317Z,11.27
2022-10-11T07:54:04.715Z,9.13
2022-10-11T07:56:33.854Z,10.48
2022-10-11T07:59:03.664Z,6.20
2022-10-11T08:01:31.304Z,7.60
2022-10-11T08:04:00.165Z,6.43
2022-10-11T08:06:31.591Z,9.50
2022-10-11T08:09:00.037Z,8.43
2022-10-11T08:11:32.891Z,8.73
2022-10-11T08:14:00.120Z,7.63
2022-10-11T08:16:26.742Z,9.18
2022-10-11T08:18:56.791Z,5.38
2022-10-11T08:21:23.763Z,9.90
2022-10-11T08:23:50.743Z,8.50
2022-10-11T08:26:17.373Z,12.48
2022-10-11T08:28:44.023Z,7.25
2022-10-11T08:31:13.527Z,4.50
2022-10-11T08:33:40.501Z,8.35
2022-10-11T08:36:08.919Z,6.75
2022-10-11T08:38:37.292Z,7.63
2022-10-11T08:41:13.724Z,6.30
2022-10-11T08:43:46.263Z,10.63
2022-10-11T08:46:15.461Z,10.15
2022-10-11T08:48:46.159Z,17.73
2022-10-11T08:51:18.122Z,13.10
2022-10-11T08:54:12.720Z,11.85
2022-10-11T08:56:40.757Z,13.20
2022-10-11T08:59:13.211Z,9.95
2022-10-11T09:02:05.041Z,10.50
2022-10-11T09:04:32.476Z,10.70
2022-10-11T09:07:03.860Z,11.35
2022-10-11T09:10:09.748Z,8.15
2022-10-11T09:12:52.855Z,13.20
2022-10-11T09:15:30.846Z,8.63
2022-10-11T09:18:12.815Z,9.95
2022-10-11T09:20:57.043Z,12.18
2022-10-11T09:23:38.940Z,8.45
2022-10-11T09:26:19.092Z,12.85
2022-10-11T09:28:56.147Z,5.65
2022-10-11T09:31:25.750Z,8.02
2022-10-11T09:33:52.638Z,10.15
2022-10-11T09:36:28.968Z,6.50
2022-10-11T09:39:14.716Z,9.98
2022-10-11T09:41:53.508Z,5.38
2022-10-11T09:44:24.459Z,10.35
2022-10-11T09:46:53.976Z,9.20
2022-10-11T09:49:26.151Z,12.60
2022-10-11T09:51:59.155Z,7.00
2022-10-11T09:54:40.318Z,5.65
2022-10-11T09:57:17.889Z,11.13
2022-10-11T10:02:14.315Z,11.20
2022-10-11T10:05:11.925Z,9.10
2022-10-11T10:07:57.336Z,10.93
2022-10-11T10:10:35.140Z,9.27
2022-10-11T10:13:04.455Z,6.80
2022-10-11T10:15:36.235Z,11.18
2022-10-11T10:18:06.059Z,7.53
2022-10-11T10:20:35.480Z,9.00
2022-10-11T10:23:12.866Z,11.93
2022-10-11T10:25:43.493Z,9.68
2022-10-11T10:28:36.768Z,6.93
2022-10-11T10:31:04.867Z,7.15
2022-10-11T10:33:34.291Z,12.27
2022-10-11T10:36:06.974Z,10.48
2022-10-11T10:38:52.394Z,9.35
2022-10-11T10:41:19.538Z,7.10
2022-10-11T10:43:53.601Z,8.55
2022-10-11T10:46:35.302Z,11.93
2022-10-11T10:52:19.730Z,5.45
2022-10-11T10:55:08.066Z,7.18
2022-10-11T10:58:02.365Z,5.95
2022-10-11T11:00:58.810Z,9.88
2022-10-11T11:03:46.629Z,8.60
2022-10-11T11:06:36.635Z,8.70
2022-10-11T11:09:22.715Z,7.43
2022-10-11T11:11:58.413Z,6.20
2022-10-11T11:14:40.402Z,6.53
2022-10-11T11:17:23.969Z,7.75
2022-10-11T11:20:12.922Z,7.13
2022-10-11T11:22:50.458Z,7.85
2022-10-11T11:28:01.399Z,6.85
2022-10-11T11:30:49.775Z,13.60
2022-10-11T11:33:32.412Z,10.57
2022-10-11T11:36:06.015Z,11.90
2022-10-11T11:38:55.487Z,9.35
2022-10-11T11:41:39.148Z,8.15
2022-10-11T11:44:16.251Z,10.73
2022-10-11T11:47:05.766Z,6.15
2022-10-11T11:49:37.941Z,10.32
2022-10-11T11:52:07.179Z,7.05
2022-10-11T11:55:30.867Z,7.18
2022-10-11T11:58:25.161Z,5.22
2022-10-11T12:01:37.393Z,8.93
2022-10-11T12:04:12.090Z,5.38
2022-10-11T12:06:47.908Z,3.92
2022-10-11T12:09:24.871Z,6.22
2022-10-11T12:11:57.510Z,6.50
2022-10-11T12:14:29.343Z,6.47
2022-10-11T12:17:18.489Z,9.27
2022-10-11T12:20:14.676Z,16.90
2022-10-11T12:22:56.958Z,6.13
2022-10-11T12:25:23.889Z,9.13
2022-10-11T12:27:53.361Z,9.00
2022-10-11T12:30:47.120Z,7.80
2022-10-11T12:33:18.023Z,5.75
2022-10-11T12:35:53.953Z,8.23
2022-10-11T12:38:40.235Z,3.40
2022-10-11T12:41:09.722Z,11.05
2022-10-11T12:44:20.446Z,7.80
2022-10-11T12:46:57.595Z,7.07
2022-10-11T12:49:24.825Z,7.47
2022-10-11T12:52:02.380Z,4.97
2022-10-11T12:57:40.467Z,6.35
2022-10-11T13:00:33.751Z,11.05
2022-10-11T13:03:31.122Z,13.43
2022-10-11T13:06:01.719Z,8.07
2022-10-11T13:08:36.286Z,5.35
2022-10-11T13:11:06.248Z,5.75
2022-10-11T13:13:41.467Z,13.05
2022-10-11T13:16:17.246Z,7.45
2022-10-11T13:18:48.313Z,6.72
2022-10-11T13:21:24.151Z,6.00
2022-10-11T13:23:55.819Z,8.43
2022-10-11T13:26:22.725Z,6.32
2022-10-11T13:28:51.195Z,5.72
2022-10-11T13:31:18.145Z,12.13
2022-10-11T13:33:45.875Z,5.45
2022-10-11T13:36:37.060Z,17.65
2022-10-11T13:39:03.794Z,10.70
2022-10-11T13:41:32.039Z,16.90
2022-10-11T13:44:00.204Z,10.60
2022-10-11T13:46:29.543Z,10.00
2022-10-11T13:49:05.455Z,7.88
2022-10-11T13:51:42.364Z,14.93
2022-10-11T13:54:13.499Z,13.57
2022-10-11T13:56:51.428Z,8.07
2022-10-11T14:01:47.352Z,7.00
2022-10-11T14:07:19.374Z,10.15
2022-10-11T14:09:47.113Z,5.68
2022-10-11T14:14:53.022Z,5.90
2022-10-11T14:17:24.798Z,7.05
2022-10-11T14:20:41.794Z,11.32
2022-10-11T14:23:08.851Z,9.45
2022-10-11T14:25:35.419Z,8.52
2022-10-11T14:28:05.777Z,6.85
2022-10-11T14:30:32.480Z,10.57
2022-10-11T14:33:01.645Z,6.70
2022-10-11T14:35:31.023Z,12.45
2022-10-11T14:37:58.277Z,8.15
2022-10-11T14:40:28.522Z,11.85
2022-10-11T14:42:55.267Z,10.18
2022-10-11T14:45:22.208Z,12.25
2022-10-11T14:47:49.678Z,13.10
2022-10-11T14:50:31.388Z,7.43
2022-10-11T14:52:58.388Z,7.85
2022-10-11T14:55:25.358Z,9.27
2022-10-11T14:57:51.912Z,8.73
2022-10-11T15:00:27.492Z,6.55
2022-10-11T15:02:55.013Z,7.63
2022-10-11T15:05:23.476Z,12.30
2022-10-11T15:07:50.067Z,11.65
2022-10-11T15:10:23.361Z,5.50
2022-10-11T15:12:51.367Z,9.77
2022-10-11T15:15:23.122Z,12.57
2022-10-11T15:17:55.889Z,15.85
2022-10-11T15:20:43.414Z,7.95
2022-10-11T15:25:38.236Z,17.45
2022-10-11T15:30:41.307Z,12.27
2022-10-11T15:33:08.761Z,10.10
2022-10-11T15:35:35.264Z,10.38
2022-10-11T15:38:02.213Z,8.43
2022-10-11T15:40:36.181Z,9.30
2022-10-11T15:43:04.490Z,5.80
2022-10-11T15:45:31.619Z,7.75
2022-10-11T15:47:58.770Z,5.78
2022-10-11T15:50:34.996Z,9.35
2022-10-11T15:53:07.778Z,9.30
2022-10-11T15:55:38.086Z,9.43
2022-10-11T15:58:04.734Z,10.60
2022-10-11T16:00:34.496Z,12.13
2022-10-11T16:03:01.157Z,14.90
2022-10-11T16:05:28.975Z,12.98
2022-10-11T16:10:24.753Z,13.13
2022-10-11T16:12:51.366Z,7.53
2022-10-11T16:15:17.952Z,9.00
2022-10-11T16:17:46.591Z,9.02
2022-10-11T16:20:13.946Z,9.60
2022-10-11T16:22:41.098Z,5.43
2022-10-11T16:25:07.962Z,7.80
2022-10-11T16:27:34.846Z,9.27
2022-10-11T16:30:01.454Z,21.85
2022-10-11T16:32:28.294Z,10.55
2022-10-11T16:34:54.864Z,8.98
2022-10-11T16:37:22.150Z,9.98
2022-10-11T16:39:48.738Z,11.50
2022-10-11T16:42:15.614Z,15.05
2022-10-11T16:44:42.518Z,8.77
2022-10-11T16:47:09.305Z,13.35
2022-10-11T16:49:36.185Z,12.38
2022-10-11T16:52:03.926Z,16.70
2022-10-11T16:54:31.233Z,14.85
2022-10-11T16:57:00.560Z,11.23
2022-10-11T16:59:27.479Z,21.10
2022-10-11T17:01:54.033Z,21.98
2022-10-11T17:04:20.966Z,26.55
2022-10-11T17:06:47.573Z,28.52
2022-10-11T17:09:14.534Z,21.88
2022-10-11T17:11:41.146Z,22.17
2022-10-11T17:14:08.269Z,18.33
2022-10-11T17:16:37.388Z,16.33
2022-10-11T17:19:04.477Z,14.02
2022-10-11T17:21:31.048Z,8.40
2022-10-11T17:23:57.740Z,10.30
2022-10-11T17:26:26.496Z,9.68
2022-10-11T17:28:57.593Z,17.02
2022-10-11T17:31:24.902Z,6.72
2022-10-11T17:33:53.478Z,11.70
2022-10-11T17:36:34.559Z,21.17
2022-10-11T17:39:09.476Z,6.38
2022-10-11T17:41:38.788Z,8.32
2022-10-11T17:44:05.756Z,6.03
2022-10-11T17:46:35.749Z,8.48
2022-10-11T17:49:04.873Z,13.77
2022-10-11T17:51:32.130Z,6.47
2022-10-11T17:53:58.891Z,13.40
2022-10-11T17:56:31.362Z,14.40
2022-10-11T17:59:03.161Z,12.90
2022-10-11T18:01:30.070Z,16.70
2022-10-11T18:04:03.182Z,10.75
2022-10-11T18:06:35.067Z,8.05
2022-10-11T18:09:03.669Z,15.15
2022-10-11T18:11:31.151Z,11.60
2022-10-11T18:13:57.893Z,13.95
2022-10-11T18:16:29.268Z,12.07
2022-10-11T18:18:57.492Z,8.90
2022-10-11T18:21:28.774Z,12.20
2022-10-11T18:24:01.971Z,14.65
2022-10-11T18:26:30.784Z,9.77
2022-10-11T18:28:58.137Z,6.72
2022-10-11T18:31:29.251Z,11.80
2022-10-11T18:33:56.336Z,12.55
2022-10-11T18:36:25.707Z,6.68
2022-10-11T18:38:56.181Z,6.78
2022-10-11T18:41:24.975Z,15.82
2022-10-11T18:43:54.260Z,15.23
2022-10-11T18:46:22.423Z,13.95
2022-10-11T18:51:23.852Z,13.93
2022-10-11T18:53:50.998Z,11.60
2022-10-11T18:56:20.767Z,14.43
2022-10-11T18:58:52.834Z,10.93
2022-10-11T19:01:25.500Z,9.65
2022-10-11T19:03:56.564Z,11.25
2022-10-11T19:06:25.804Z,17.13
2022-10-11T19:08:55.745Z,22.20
2022-10-11T19:11:23.795Z,28.45
2022-10-11T19:16:22.011Z,15.48
2022-10-11T19:18:50.110Z,17.38
2022-10-11T19:21:17.022Z,16.08
2022-10-11T19:23:45.452Z,24.10
2022-10-11T19:26:14.956Z,16.08
2022-10-11T19:28:42.024Z,12.27
2022-10-11T19:31:10.988Z,20.52
2022-10-11T19:33:39.827Z,13.40
2022-10-11T19:36:06.897Z,11.48
2022-10-11T19:38:34.969Z,12.93
2022-10-11T19:41:02.251Z,9.68
2022-10-11T19:43:28.779Z,11.10
2022-10-11T19:46:07.559Z,15.93
2022-10-11T19:48:38.090Z,17.80
2022-10-11T19:51:14.151Z,12.13
2022-10-11T19:53:41.586Z,9.32
2022-10-11T19:56:13.362Z,8.15
2022-10-11T19:58:40.712Z,15.10
2022-10-11T20:01:11.959Z,31.43
2022-10-11T20:03:39.425Z,29.17
2022-10-11T20:06:07.864Z,32.70
2022-10-11T20:08:36.375Z,48.95
2022-10-11T20:11:08.093Z,36.03
2022-10-11T20:13:36.163Z,31.15
2022-10-11T20:16:11.164Z,24.77
2022-10-11T20:18:39.298Z,28.15
2022-10-11T20:21:13.663Z,30.10
2022-10-11T20:26:20.785Z,27.85
2022-10-11T20:28:55.711Z,27.98
2022-10-11T20:31:31.600Z,18.10
2022-10-11T20:34:01.799Z,20.52
2022-10-11T20:36:30.047Z,16.40
2022-10-11T20:41:31.170Z,19.02
2022-10-11T20:43:59.449Z,27.45
2022-10-11T20:49:01.180Z,23.63
2022-10-11T20:51:29.006Z,22.77
2022-10-11T20:53:56.404Z,25.35
2022-10-11T20:56:23.486Z,18.50
2022-10-11T20:58:54.893Z,15.68
2022-10-11T21:01:29.100Z,13.65
2022-10-11T21:03:57.739Z,19.00
2022-10-11T21:06:24.733Z,17.20
2022-10-11T21:08:54.748Z,12.23
2022-10-11T21:11:21.240Z,18.42
2022-10-11T21:13:53.382Z,15.50
2022-10-11T21:16:19.950Z,12.75
2022-10-11T21:18:50.299Z,14.25
2022-10-11T21:21:16.860Z,14.00
2022-10-11T21:23:43.323Z,14.40
2022-10-11T21:26:12.275Z,7.95
2022-10-11T21:28:40.348Z,13.48
2022-10-11T21:31:09.704Z,12.30
2022-10-11T21:33:37.425Z,9.05
2022-10-11T21:36:09.803Z,7.35
2022-10-11T21:38:36.915Z,8.38
2022-10-11T21:41:15.780Z,7.50
2022-10-11T21:43:42.474Z,10.68
2022-10-11T21:46:13.802Z,6.85
2022-10-11T21:48:42.984Z,13.57
2022-10-11T21:51:30.548Z,6.40
2022-10-11T21:54:00.278Z,8.25
2022-10-11T21:56:27.482Z,6.82
2022-10-11T21:58:54.145Z,6.22
2022-10-11T22:01:21.139Z,4.80
2022-10-11T22:03:48.335Z,5.78
2022-10-11T22:06:15.569Z,6.13
2022-10-11T22:08:42.980Z,2.95
2022-10-11T22:11:09.871Z,2.63
2022-10-11T22:13:38.872Z,7.07
2022-10-11T22:16:07.261Z,3.60
2022-10-11T22:18:34.618Z,5.75
2022-10-11T22:21:12.611Z,5.63
2022-10-11T22:23:43.909Z,5.03
2022-10-11T22:26:31.496Z,6.68
2022-10-11T22:29:00.084Z,4.53
2022-10-11T22:31:26.774Z,7.88
2022-10-11T22:33:55.501Z,5.07
2022-10-11T22:36:24.133Z,4.32
2022-10-11T22:38:51.749Z,4.15
2022-10-11T22:41:18.360Z,5.03
2022-10-11T22:43:45.289Z,4.55
2022-10-11T22:46:11.830Z,4.07
2022-10-11T22:48:38.305Z,3.63
2022-10-11T22:51:04.973Z,2.92
2022-10-11T22:53:31.976Z,3.05
2022-10-11T22:55:58.823Z,7.20
2022-10-11T22:58:25.792Z,4.47
2022-10-11T23:00:52.800Z,9.70
2022-10-11T23:03:19.666Z,4.22
2022-10-11T23:05:57.409Z,9.13
2022-10-11T23:08:24.390Z,6.57
2022-10-11T23:10:50.954Z,7.20
2022-10-11T23:13:17.842Z,7.25
2022-10-11T23:15:47.081Z,4.18
2022-10-11T23:18:15.993Z,5.22
2022-10-11T23:20:43.665Z,6.47
2022-10-11T23:23:12.722Z,9.43
2022-10-11T23:25:39.687Z,5.43
2022-10-11T23:28:09.466Z,5.97
2022-10-11T23:30:38.925Z,3.90
2022-10-11T23:33:05.392Z,4.75
2022-10-11T23:35:34.136Z,4.25
2022-10-11T23:38:00.574Z,8.05
2022-10-11T23:40:27.192Z,5.57
2022-10-11T23:42:54.012Z,4.45
2022-10-11T23:45:20.863Z,5.70
2022-10-11T23:47:47.902Z,4.28
2022-10-11T23:50:15.063Z,6.07
2022-10-11T23:52:42.131Z,5.88
2022-10-11T23:55:09.303Z,6.60
2022-10-11T23:57:36.530Z,5.57
